sensor_id;sensor_type;location;lat;lon;timestamp;temperature;humidity
23560;DHT22;11958;50.836;4.438;2023-06-26T00:01:31;24.10;50.30
23560;DHT22;11958;50.836;4.438;2023-06-26T00:03:58;23.80;50.60
23560;DHT22;11958;50.836;4.438;2023-06-26T00:06:25;23.80;51.70
23560;DHT22;11958;50.836;4.438;2023-06-26T00:08:52;23.90;52.30
23560;DHT22;11958;50.836;4.438;2023-06-26T00:11:20;23.90;53.30
23560;DHT22;11958;50.836;4.438;2023-06-26T00:13:47;23.70;53.00
23560;DHT22;11958;50.836;4.438;2023-06-26T00:16:13;23.60;53.60
23560;DHT22;11958;50.836;4.438;2023-06-26T00:18:39;23.60;53.80
23560;DHT22;11958;50.836;4.438;2023-06-26T00:21:04;23.30;55.00
23560;DHT22;11958;50.836;4.438;2023-06-26T00:23:30;23.30;55.30
23560;DHT22;11958;50.836;4.438;2023-06-26T00:25:57;23.10;54.90
23560;DHT22;11958;50.836;4.438;2023-06-26T00:28:23;23.30;54.60
23560;DHT22;11958;50.836;4.438;2023-06-26T00:30:49;23.20;53.70
23560;DHT22;11958;50.836;4.438;2023-06-26T00:33:14;22.90;54.80
23560;DHT22;11958;50.836;4.438;2023-06-26T00:35:41;23.10;55.00
23560;DHT22;11958;50.836;4.438;2023-06-26T00:38:06;23.10;53.40
23560;DHT22;11958;50.836;4.438;2023-06-26T00:40:32;22.80;53.10
23560;DHT22;11958;50.836;4.438;2023-06-26T00:42:57;22.90;52.70
23560;DHT22;11958;50.836;4.438;2023-06-26T00:45:23;22.70;54.30
23560;DHT22;11958;50.836;4.438;2023-06-26T00:47:49;22.70;53.60
23560;DHT22;11958;50.836;4.438;2023-06-26T00:50:14;22.90;53.50
23560;DHT22;11958;50.836;4.438;2023-06-26T00:52:43;22.60;53.50
23560;DHT22;11958;50.836;4.438;2023-06-26T00:55:09;22.70;53.30
23560;DHT22;11958;50.836;4.438;2023-06-26T00:57:35;22.30;53.00
23560;DHT22;11958;50.836;4.438;2023-06-26T01:00:01;22.40;53.30
23560;DHT22;11958;50.836;4.438;2023-06-26T01:02:29;22.10;52.20
23560;DHT22;11958;50.836;4.438;2023-06-26T01:04:59;22.00;53.70
23560;DHT22;11958;50.836;4.438;2023-06-26T01:07:26;22.10;51.50
23560;DHT22;11958;50.836;4.438;2023-06-26T01:09:51;22.00;52.60
23560;DHT22;11958;50.836;4.438;2023-06-26T01:12:17;22.20;51.60
23560;DHT22;11958;50.836;4.438;2023-06-26T01:14:43;21.80;52.60
23560;DHT22;11958;50.836;4.438;2023-06-26T01:17:10;21.90;52.70
23560;DHT22;11958;50.836;4.438;2023-06-26T01:19:41;21.80;52.90
23560;DHT22;11958;50.836;4.438;2023-06-26T01:27:50;22.00;53.20
23560;DHT22;11958;50.836;4.438;2023-06-26T01:30:19;22.00;52.90
23560;DHT22;11958;50.836;4.438;2023-06-26T01:32:46;22.30;52.30
23560;DHT22;11958;50.836;4.438;2023-06-26T01:35:12;22.20;52.80
23560;DHT22;11958;50.836;4.438;2023-06-26T01:37:39;22.00;53.30
23560;DHT22;11958;50.836;4.438;2023-06-26T01:40:05;21.70;54.80
23560;DHT22;11958;50.836;4.438;2023-06-26T01:42:34;21.60;56.00
23560;DHT22;11958;50.836;4.438;2023-06-26T01:45:23;21.60;55.60
23560;DHT22;11958;50.836;4.438;2023-06-26T01:47:51;21.60;56.40
23560;DHT22;11958;50.836;4.438;2023-06-26T01:50:24;21.60;56.70
23560;DHT22;11958;50.836;4.438;2023-06-26T01:53:07;21.50;56.60
23560;DHT22;11958;50.836;4.438;2023-06-26T01:58:14;21.50;56.60
23560;DHT22;11958;50.836;4.438;2023-06-26T02:00:42;21.50;57.70
23560;DHT22;11958;50.836;4.438;2023-06-26T02:03:08;21.70;57.10
23560;DHT22;11958;50.836;4.438;2023-06-26T02:05:34;21.60;57.30
23560;DHT22;11958;50.836;4.438;2023-06-26T02:08:00;21.50;57.20
23560;DHT22;11958;50.836;4.438;2023-06-26T02:10:28;21.70;58.00
23560;DHT22;11958;50.836;4.438;2023-06-26T02:12:54;21.40;57.90
23560;DHT22;11958;50.836;4.438;2023-06-26T02:15:20;21.30;58.30
23560;DHT22;11958;50.836;4.438;2023-06-26T02:17:46;21.40;59.30
23560;DHT22;11958;50.836;4.438;2023-06-26T02:20:14;21.30;59.70
23560;DHT22;11958;50.836;4.438;2023-06-26T02:22:41;21.40;59.00
23560;DHT22;11958;50.836;4.438;2023-06-26T02:25:07;21.20;59.80
23560;DHT22;11958;50.836;4.438;2023-06-26T02:27:32;21.30;60.30
23560;DHT22;11958;50.836;4.438;2023-06-26T02:29:58;21.40;59.90
23560;DHT22;11958;50.836;4.438;2023-06-26T02:32:24;21.20;60.70
23560;DHT22;11958;50.836;4.438;2023-06-26T02:34:49;21.20;60.70
23560;DHT22;11958;50.836;4.438;2023-06-26T02:37:17;21.30;60.20
23560;DHT22;11958;50.836;4.438;2023-06-26T02:39:43;21.20;61.00
23560;DHT22;11958;50.836;4.438;2023-06-26T02:42:09;21.20;61.30
23560;DHT22;11958;50.836;4.438;2023-06-26T02:44:34;21.20;61.00
23560;DHT22;11958;50.836;4.438;2023-06-26T02:47:00;20.90;62.30
23560;DHT22;11958;50.836;4.438;2023-06-26T02:49:25;20.80;65.30
23560;DHT22;11958;50.836;4.438;2023-06-26T02:51:51;20.80;64.90
23560;DHT22;11958;50.836;4.438;2023-06-26T02:54:17;20.70;64.70
23560;DHT22;11958;50.836;4.438;2023-06-26T02:56:42;20.80;66.20
23560;DHT22;11958;50.836;4.438;2023-06-26T02:59:08;20.60;66.40
23560;DHT22;11958;50.836;4.438;2023-06-26T03:01:34;20.80;66.50
23560;DHT22;11958;50.836;4.438;2023-06-26T03:03:59;20.80;66.00
23560;DHT22;11958;50.836;4.438;2023-06-26T03:06:26;20.70;66.50
23560;DHT22;11958;50.836;4.438;2023-06-26T03:08:53;20.60;67.20
23560;DHT22;11958;50.836;4.438;2023-06-26T03:11:18;20.30;68.30
23560;DHT22;11958;50.836;4.438;2023-06-26T03:13:44;20.30;68.60
23560;DHT22;11958;50.836;4.438;2023-06-26T03:16:10;20.30;69.00
23560;DHT22;11958;50.836;4.438;2023-06-26T03:18:35;20.20;69.00
23560;DHT22;11958;50.836;4.438;2023-06-26T03:21:01;20.30;70.10
23560;DHT22;11958;50.836;4.438;2023-06-26T03:23:27;20.40;69.40
23560;DHT22;11958;50.836;4.438;2023-06-26T03:25:53;20.40;69.20
23560;DHT22;11958;50.836;4.438;2023-06-26T03:28:19;20.30;70.00
23560;DHT22;11958;50.836;4.438;2023-06-26T03:30:44;20.40;69.90
23560;DHT22;11958;50.836;4.438;2023-06-26T03:33:10;20.50;69.30
23560;DHT22;11958;50.836;4.438;2023-06-26T03:35:36;20.20;69.70
23560;DHT22;11958;50.836;4.438;2023-06-26T03:38:04;20.10;70.80
23560;DHT22;11958;50.836;4.438;2023-06-26T03:40:30;20.10;71.50
23560;DHT22;11958;50.836;4.438;2023-06-26T03:42:55;20.10;71.80
23560;DHT22;11958;50.836;4.438;2023-06-26T03:45:21;20.10;71.00
23560;DHT22;11958;50.836;4.438;2023-06-26T03:47:46;20.00;71.40
23560;DHT22;11958;50.836;4.438;2023-06-26T03:50:17;19.90;72.00
23560;DHT22;11958;50.836;4.438;2023-06-26T03:52:43;20.10;71.80
23560;DHT22;11958;50.836;4.438;2023-06-26T03:55:09;19.90;72.00
23560;DHT22;11958;50.836;4.438;2023-06-26T03:57:35;19.90;71.90
23560;DHT22;11958;50.836;4.438;2023-06-26T04:00:01;19.90;71.90
23560;DHT22;11958;50.836;4.438;2023-06-26T04:02:27;19.70;72.60
23560;DHT22;11958;50.836;4.438;2023-06-26T04:04:53;19.60;73.40
23560;DHT22;11958;50.836;4.438;2023-06-26T04:07:19;19.70;72.20
23560;DHT22;11958;50.836;4.438;2023-06-26T04:09:45;19.60;73.10
23560;DHT22;11958;50.836;4.438;2023-06-26T04:12:11;19.60;73.80
23560;DHT22;11958;50.836;4.438;2023-06-26T04:14:36;19.70;72.30
23560;DHT22;11958;50.836;4.438;2023-06-26T04:17:02;19.80;72.80
23560;DHT22;11958;50.836;4.438;2023-06-26T04:19:29;20.00;71.90
23560;DHT22;11958;50.836;4.438;2023-06-26T04:21:55;20.00;71.40
23560;DHT22;11958;50.836;4.438;2023-06-26T04:24:21;19.80;71.90
23560;DHT22;11958;50.836;4.438;2023-06-26T04:26:47;19.70;71.60
23560;DHT22;11958;50.836;4.438;2023-06-26T04:29:13;19.70;71.50
23560;DHT22;11958;50.836;4.438;2023-06-26T04:31:39;19.60;70.60
23560;DHT22;11958;50.836;4.438;2023-06-26T04:34:05;19.50;71.00
23560;DHT22;11958;50.836;4.438;2023-06-26T04:36:30;19.40;71.80
23560;DHT22;11958;50.836;4.438;2023-06-26T04:38:57;19.50;71.30
23560;DHT22;11958;50.836;4.438;2023-06-26T04:41:24;19.60;71.90
23560;DHT22;11958;50.836;4.438;2023-06-26T04:43:50;19.80;71.00
23560;DHT22;11958;50.836;4.438;2023-06-26T04:46:16;19.90;69.50
23560;DHT22;11958;50.836;4.438;2023-06-26T04:48:41;19.70;69.80
23560;DHT22;11958;50.836;4.438;2023-06-26T04:51:10;20.00;69.00
23560;DHT22;11958;50.836;4.438;2023-06-26T04:53:36;19.90;68.30
23560;DHT22;11958;50.836;4.438;2023-06-26T04:56:01;19.90;68.00
23560;DHT22;11958;50.836;4.438;2023-06-26T04:58:27;19.80;68.30
23560;DHT22;11958;50.836;4.438;2023-06-26T05:00:53;19.70;68.90
23560;DHT22;11958;50.836;4.438;2023-06-26T05:03:19;19.70;68.50
23560;DHT22;11958;50.836;4.438;2023-06-26T05:05:45;19.80;68.10
23560;DHT22;11958;50.836;4.438;2023-06-26T05:08:24;19.90;67.10
23560;DHT22;11958;50.836;4.438;2023-06-26T05:10:51;19.70;67.20
23560;DHT22;11958;50.836;4.438;2023-06-26T05:13:19;19.60;68.10
23560;DHT22;11958;50.836;4.438;2023-06-26T05:15:46;19.80;67.70
23560;DHT22;11958;50.836;4.438;2023-06-26T05:18:12;19.90;67.80
23560;DHT22;11958;50.836;4.438;2023-06-26T05:20:38;19.80;66.20
23560;DHT22;11958;50.836;4.438;2023-06-26T05:23:04;19.70;67.50
23560;DHT22;11958;50.836;4.438;2023-06-26T05:25:32;19.80;66.30
23560;DHT22;11958;50.836;4.438;2023-06-26T05:27:59;19.80;66.40
23560;DHT22;11958;50.836;4.438;2023-06-26T05:30:26;19.80;66.00
23560;DHT22;11958;50.836;4.438;2023-06-26T05:32:53;19.80;66.50
23560;DHT22;11958;50.836;4.438;2023-06-26T05:35:20;19.80;66.20
23560;DHT22;11958;50.836;4.438;2023-06-26T05:37:49;19.80;66.80
23560;DHT22;11958;50.836;4.438;2023-06-26T05:40:16;19.70;67.60
23560;DHT22;11958;50.836;4.438;2023-06-26T05:42:45;19.60;65.50
23560;DHT22;11958;50.836;4.438;2023-06-26T05:45:28;19.70;65.20
23560;DHT22;11958;50.836;4.438;2023-06-26T05:47:54;19.60;63.70
23560;DHT22;11958;50.836;4.438;2023-06-26T05:50:20;19.70;64.00
23560;DHT22;11958;50.836;4.438;2023-06-26T05:52:46;19.70;63.30
23560;DHT22;11958;50.836;4.438;2023-06-26T05:55:13;19.80;65.30
23560;DHT22;11958;50.836;4.438;2023-06-26T05:57:40;19.90;63.40
23560;DHT22;11958;50.836;4.438;2023-06-26T06:00:06;19.90;63.30
23560;DHT22;11958;50.836;4.438;2023-06-26T06:02:36;20.30;62.40
23560;DHT22;11958;50.836;4.438;2023-06-26T06:05:02;20.30;63.10
23560;DHT22;11958;50.836;4.438;2023-06-26T06:07:49;20.30;60.50
23560;DHT22;11958;50.836;4.438;2023-06-26T06:10:15;20.40;60.50
23560;DHT22;11958;50.836;4.438;2023-06-26T06:12:41;20.40;59.70
23560;DHT22;11958;50.836;4.438;2023-06-26T06:15:21;20.40;60.60
23560;DHT22;11958;50.836;4.438;2023-06-26T06:17:47;20.50;60.80
23560;DHT22;11958;50.836;4.438;2023-06-26T06:20:12;20.40;59.40
23560;DHT22;11958;50.836;4.438;2023-06-26T06:22:39;20.70;57.40
23560;DHT22;11958;50.836;4.438;2023-06-26T06:28:52;20.60;58.60
23560;DHT22;11958;50.836;4.438;2023-06-26T06:31:22;20.70;57.90
23560;DHT22;11958;50.836;4.438;2023-06-26T06:33:57;20.50;59.20
23560;DHT22;11958;50.836;4.438;2023-06-26T06:36:23;20.50;58.60
23560;DHT22;11958;50.836;4.438;2023-06-26T06:38:49;20.70;58.60
23560;DHT22;11958;50.836;4.438;2023-06-26T07:14:37;21.00;54.80
23560;DHT22;11958;50.836;4.438;2023-06-26T07:20:56;21.20;54.20
23560;DHT22;11958;50.836;4.438;2023-06-26T07:30:44;21.60;50.80
23560;DHT22;11958;50.836;4.438;2023-06-26T07:36:47;21.40;53.00
23560;DHT22;11958;50.836;4.438;2023-06-26T07:42:45;21.50;51.70
23560;DHT22;11958;50.836;4.438;2023-06-26T07:51:54;21.80;50.30
23560;DHT22;11958;50.836;4.438;2023-06-26T07:57:41;21.80;47.70
23560;DHT22;11958;50.836;4.438;2023-06-26T08:01:01;21.70;49.20
23560;DHT22;11958;50.836;4.438;2023-06-26T08:06:43;21.70;49.30
23560;DHT22;11958;50.836;4.438;2023-06-26T08:09:09;22.00;47.90
23560;DHT22;11958;50.836;4.438;2023-06-26T08:11:35;22.00;47.60
23560;DHT22;11958;50.836;4.438;2023-06-26T08:14:00;22.00;47.70
23560;DHT22;11958;50.836;4.438;2023-06-26T08:16:26;22.40;48.00
23560;DHT22;11958;50.836;4.438;2023-06-26T08:18:52;22.30;48.30
23560;DHT22;11958;50.836;4.438;2023-06-26T08:21:17;22.20;49.40
23560;DHT22;11958;50.836;4.438;2023-06-26T08:23:44;22.20;50.30
23560;DHT22;11958;50.836;4.438;2023-06-26T08:26:10;22.10;48.40
23560;DHT22;11958;50.836;4.438;2023-06-26T08:28:36;22.20;48.50
23560;DHT22;11958;50.836;4.438;2023-06-26T08:31:01;22.20;49.10
23560;DHT22;11958;50.836;4.438;2023-06-26T08:33:27;22.50;47.50
23560;DHT22;11958;50.836;4.438;2023-06-26T08:35:53;22.50;48.10
23560;DHT22;11958;50.836;4.438;2023-06-26T08:38:19;22.40;47.10
23560;DHT22;11958;50.836;4.438;2023-06-26T08:40:47;22.60;46.00
23560;DHT22;11958;50.836;4.438;2023-06-26T08:43:12;22.50;45.60
23560;DHT22;11958;50.836;4.438;2023-06-26T08:48:14;22.40;46.50
23560;DHT22;11958;50.836;4.438;2023-06-26T08:50:41;22.50;47.80
23560;DHT22;11958;50.836;4.438;2023-06-26T08:53:20;22.50;46.80
23560;DHT22;11958;50.836;4.438;2023-06-26T08:55:49;22.50;47.80
23560;DHT22;11958;50.836;4.438;2023-06-26T08:58:17;22.60;47.60
23560;DHT22;11958;50.836;4.438;2023-06-26T09:03:19;22.80;43.60
23560;DHT22;11958;50.836;4.438;2023-06-26T09:05:45;23.00;43.90
23560;DHT22;11958;50.836;4.438;2023-06-26T09:08:11;23.00;43.90
23560;DHT22;11958;50.836;4.438;2023-06-26T09:10:37;23.00;45.20
23560;DHT22;11958;50.836;4.438;2023-06-26T09:13:03;23.10;44.60
23560;DHT22;11958;50.836;4.438;2023-06-26T09:15:38;23.10;42.10
23560;DHT22;11958;50.836;4.438;2023-06-26T09:18:05;23.20;43.20
23560;DHT22;11958;50.836;4.438;2023-06-26T09:20:31;23.10;41.70
23560;DHT22;11958;50.836;4.438;2023-06-26T09:23:00;23.10;42.60
23560;DHT22;11958;50.836;4.438;2023-06-26T09:25:26;23.10;43.00
23560;DHT22;11958;50.836;4.438;2023-06-26T09:27:53;23.50;41.20
23560;DHT22;11958;50.836;4.438;2023-06-26T09:30:19;23.30;43.80
23560;DHT22;11958;50.836;4.438;2023-06-26T09:32:45;23.50;43.20
23560;DHT22;11958;50.836;4.438;2023-06-26T09:35:11;23.60;40.10
23560;DHT22;11958;50.836;4.438;2023-06-26T09:37:37;23.60;39.40
23560;DHT22;11958;50.836;4.438;2023-06-26T09:40:03;23.60;40.50
23560;DHT22;11958;50.836;4.438;2023-06-26T09:42:33;23.50;40.10
23560;DHT22;11958;50.836;4.438;2023-06-26T09:44:59;23.80;39.40
23560;DHT22;11958;50.836;4.438;2023-06-26T09:47:25;23.90;40.70
23560;DHT22;11958;50.836;4.438;2023-06-26T10:05:44;23.80;37.50
23560;DHT22;11958;50.836;4.438;2023-06-26T10:11:47;24.10;35.70
23560;DHT22;11958;50.836;4.438;2023-06-26T10:14:15;23.90;36.10
23560;DHT22;11958;50.836;4.438;2023-06-26T10:16:42;24.20;38.90
23560;DHT22;11958;50.836;4.438;2023-06-26T10:21:44;24.80;35.80
23560;DHT22;11958;50.836;4.438;2023-06-26T10:24:12;24.70;34.10
23560;DHT22;11958;50.836;4.438;2023-06-26T10:26:43;24.60;34.30
23560;DHT22;11958;50.836;4.438;2023-06-26T10:29:14;24.90;34.80
23560;DHT22;11958;50.836;4.438;2023-06-26T10:31:43;24.80;34.30
23560;DHT22;11958;50.836;4.438;2023-06-26T10:34:11;24.70;33.40
23560;DHT22;11958;50.836;4.438;2023-06-26T10:37:03;24.30;32.40
23560;DHT22;11958;50.836;4.438;2023-06-26T10:39:49;24.50;34.20
23560;DHT22;11958;50.836;4.438;2023-06-26T10:42:16;24.60;34.80
23560;DHT22;11958;50.836;4.438;2023-06-26T10:44:46;24.70;34.40
23560;DHT22;11958;50.836;4.438;2023-06-26T10:47:40;24.30;34.50
23560;DHT22;11958;50.836;4.438;2023-06-26T11:04:14;25.10;33.60
23560;DHT22;11958;50.836;4.438;2023-06-26T11:13:34;24.80;33.50
23560;DHT22;11958;50.836;4.438;2023-06-26T11:16:28;24.70;33.30
23560;DHT22;11958;50.836;4.438;2023-06-26T11:19:00;24.90;34.00
23560;DHT22;11958;50.836;4.438;2023-06-26T11:25:08;24.50;34.00
23560;DHT22;11958;50.836;4.438;2023-06-26T11:28:26;24.70;33.50
23560;DHT22;11958;50.836;4.438;2023-06-26T11:34:36;24.50;33.30
23560;DHT22;11958;50.836;4.438;2023-06-26T11:37:03;24.90;34.40
23560;DHT22;11958;50.836;4.438;2023-06-26T11:46:17;24.30;34.90
23560;DHT22;11958;50.836;4.438;2023-06-26T11:49:05;24.60;36.50
23560;DHT22;11958;50.836;4.438;2023-06-26T11:51:43;24.80;35.20
23560;DHT22;11958;50.836;4.438;2023-06-26T11:54:33;24.70;31.80
23560;DHT22;11958;50.836;4.438;2023-06-26T11:56:59;24.70;33.60
23560;DHT22;11958;50.836;4.438;2023-06-26T11:59:58;24.70;30.40
23560;DHT22;11958;50.836;4.438;2023-06-26T12:02:46;24.90;31.90
23560;DHT22;11958;50.836;4.438;2023-06-26T12:05:27;24.80;31.60
23560;DHT22;11958;50.836;4.438;2023-06-26T12:08:00;24.80;30.70
23560;DHT22;11958;50.836;4.438;2023-06-26T12:10:27;24.90;33.10
23560;DHT22;11958;50.836;4.438;2023-06-26T12:12:53;25.70;31.30
23560;DHT22;11958;50.836;4.438;2023-06-26T12:15:21;25.70;30.10
23560;DHT22;11958;50.836;4.438;2023-06-26T12:17:47;26.10;30.50
23560;DHT22;11958;50.836;4.438;2023-06-26T12:20:23;26.10;28.80
23560;DHT22;11958;50.836;4.438;2023-06-26T12:22:49;26.80;27.20
23560;DHT22;11958;50.836;4.438;2023-06-26T12:25:15;27.30;28.40
23560;DHT22;11958;50.836;4.438;2023-06-26T12:27:40;27.90;23.40
23560;DHT22;11958;50.836;4.438;2023-06-26T12:30:07;28.80;23.80
23560;DHT22;11958;50.836;4.438;2023-06-26T12:32:34;30.10;23.30
23560;DHT22;11958;50.836;4.438;2023-06-26T12:35:02;30.50;20.90
23560;DHT22;11958;50.836;4.438;2023-06-26T12:37:28;30.50;22.00
23560;DHT22;11958;50.836;4.438;2023-06-26T12:39:58;29.30;22.00
23560;DHT22;11958;50.836;4.438;2023-06-26T12:42:25;28.70;21.60
23560;DHT22;11958;50.836;4.438;2023-06-26T12:44:52;28.60;23.00
23560;DHT22;11958;50.836;4.438;2023-06-26T12:47:23;29.00;23.70
23560;DHT22;11958;50.836;4.438;2023-06-26T12:49:52;29.30;23.30
23560;DHT22;11958;50.836;4.438;2023-06-26T12:56:09;30.00;21.10
23560;DHT22;11958;50.836;4.438;2023-06-26T12:59:09;29.10;22.10
23560;DHT22;11958;50.836;4.438;2023-06-26T13:01:34;30.20;21.40
23560;DHT22;11958;50.836;4.438;2023-06-26T13:04:23;30.40;20.60
23560;DHT22;11958;50.836;4.438;2023-06-26T13:07:22;28.90;23.60
23560;DHT22;11958;50.836;4.438;2023-06-26T13:10:00;28.60;23.20
23560;DHT22;11958;50.836;4.438;2023-06-26T13:12:25;27.90;23.70
23560;DHT22;11958;50.836;4.438;2023-06-26T13:18:36;27.10;25.70
23560;DHT22;11958;50.836;4.438;2023-06-26T13:21:03;26.90;26.00
23560;DHT22;11958;50.836;4.438;2023-06-26T13:23:29;26.70;25.50
23560;DHT22;11958;50.836;4.438;2023-06-26T13:26:16;26.20;26.20
23560;DHT22;11958;50.836;4.438;2023-06-26T13:28:41;25.90;27.30
23560;DHT22;11958;50.836;4.438;2023-06-26T13:31:10;25.50;28.10
23560;DHT22;11958;50.836;4.438;2023-06-26T13:33:38;26.30;29.40
23560;DHT22;11958;50.836;4.438;2023-06-26T13:36:04;27.40;26.00
23560;DHT22;11958;50.836;4.438;2023-06-26T13:38:33;28.20;24.10
23560;DHT22;11958;50.836;4.438;2023-06-26T13:40:58;28.30;23.90
23560;DHT22;11958;50.836;4.438;2023-06-26T13:43:34;29.00;22.50
23560;DHT22;11958;50.836;4.438;2023-06-26T13:46:12;29.00;22.10
23560;DHT22;11958;50.836;4.438;2023-06-26T13:48:39;28.80;23.50
23560;DHT22;11958;50.836;4.438;2023-06-26T13:51:18;28.40;22.50
23560;DHT22;11958;50.836;4.438;2023-06-26T13:53:47;27.80;23.70
23560;DHT22;11958;50.836;4.438;2023-06-26T13:59:16;28.20;24.20
23560;DHT22;11958;50.836;4.438;2023-06-26T14:01:43;28.70;23.90
23560;DHT22;11958;50.836;4.438;2023-06-26T14:04:09;28.90;23.10
23560;DHT22;11958;50.836;4.438;2023-06-26T14:06:37;29.30;21.80
23560;DHT22;11958;50.836;4.438;2023-06-26T14:12:46;28.20;23.30
23560;DHT22;11958;50.836;4.438;2023-06-26T14:15:12;27.20;23.80
23560;DHT22;11958;50.836;4.438;2023-06-26T14:17:38;27.60;23.40
23560;DHT22;11958;50.836;4.438;2023-06-26T14:23:49;28.40;20.70
23560;DHT22;11958;50.836;4.438;2023-06-26T14:29:37;29.10;20.70
23560;DHT22;11958;50.836;4.438;2023-06-26T14:54:59;27.80;24.60
23560;DHT22;11958;50.836;4.438;2023-06-26T15:00:47;27.50;21.70
23560;DHT22;11958;50.836;4.438;2023-06-26T15:03:13;27.30;24.20
23560;DHT22;11958;50.836;4.438;2023-06-26T15:05:42;27.00;24.30
23560;DHT22;11958;50.836;4.438;2023-06-26T15:11:29;27.10;23.20
23560;DHT22;11958;50.836;4.438;2023-06-26T15:20:38;26.60;25.80
23560;DHT22;11958;50.836;4.438;2023-06-26T15:23:16;27.00;24.80
23560;DHT22;11958;50.836;4.438;2023-06-26T15:25:42;26.60;24.70
23560;DHT22;11958;50.836;4.438;2023-06-26T15:28:30;26.10;25.90
23560;DHT22;11958;50.836;4.438;2023-06-26T15:30:56;25.60;27.80
23560;DHT22;11958;50.836;4.438;2023-06-26T15:33:22;25.40;26.40
23560;DHT22;11958;50.836;4.438;2023-06-26T15:40:06;25.60;29.60
23560;DHT22;11958;50.836;4.438;2023-06-26T15:43:01;25.70;29.50
23560;DHT22;11958;50.836;4.438;2023-06-26T15:45:26;25.90;27.00
23560;DHT22;11958;50.836;4.438;2023-06-26T15:50:56;25.70;29.00
23560;DHT22;11958;50.836;4.438;2023-06-26T15:53:34;25.90;28.60
23560;DHT22;11958;50.836;4.438;2023-06-26T16:00:08;25.80;28.30
23560;DHT22;11958;50.836;4.438;2023-06-26T16:02:37;25.40;29.00
23560;DHT22;11958;50.836;4.438;2023-06-26T16:05:04;25.50;30.30
23560;DHT22;11958;50.836;4.438;2023-06-26T16:07:29;25.40;29.20
23560;DHT22;11958;50.836;4.438;2023-06-26T16:09:56;25.40;27.10
23560;DHT22;11958;50.836;4.438;2023-06-26T16:12:22;25.50;27.10
23560;DHT22;11958;50.836;4.438;2023-06-26T16:14:48;26.00;31.00
23560;DHT22;11958;50.836;4.438;2023-06-26T16:17:14;25.80;27.30
23560;DHT22;11958;50.836;4.438;2023-06-26T16:19:40;25.90;29.20
23560;DHT22;11958;50.836;4.438;2023-06-26T16:22:06;25.50;26.40
23560;DHT22;11958;50.836;4.438;2023-06-26T16:24:32;25.10;26.20
23560;DHT22;11958;50.836;4.438;2023-06-26T16:26:58;25.30;26.90
23560;DHT22;11958;50.836;4.438;2023-06-26T16:29:23;25.30;28.50
23560;DHT22;11958;50.836;4.438;2023-06-26T16:31:49;25.00;29.40
23560;DHT22;11958;50.836;4.438;2023-06-26T16:34:15;24.80;26.90
23560;DHT22;11958;50.836;4.438;2023-06-26T16:36:41;24.60;27.10
23560;DHT22;11958;50.836;4.438;2023-06-26T16:39:08;24.70;29.50
23560;DHT22;11958;50.836;4.438;2023-06-26T16:41:34;24.90;28.90
23560;DHT22;11958;50.836;4.438;2023-06-26T16:44:05;25.00;27.20
23560;DHT22;11958;50.836;4.438;2023-06-26T16:46:30;24.90;26.30
23560;DHT22;11958;50.836;4.438;2023-06-26T16:48:56;24.50;26.00
23560;DHT22;11958;50.836;4.438;2023-06-26T16:51:28;24.60;26.80
23560;DHT22;11958;50.836;4.438;2023-06-26T16:53:53;24.60;26.10
23560;DHT22;11958;50.836;4.438;2023-06-26T16:56:19;24.40;27.30
23560;DHT22;11958;50.836;4.438;2023-06-26T16:58:45;24.20;29.70
23560;DHT22;11958;50.836;4.438;2023-06-26T17:01:10;24.00;30.60
23560;DHT22;11958;50.836;4.438;2023-06-26T17:03:36;23.70;30.30
23560;DHT22;11958;50.836;4.438;2023-06-26T17:06:01;23.60;31.30
23560;DHT22;11958;50.836;4.438;2023-06-26T17:08:28;23.60;31.10
23560;DHT22;11958;50.836;4.438;2023-06-26T17:10:53;23.40;31.30
23560;DHT22;11958;50.836;4.438;2023-06-26T17:13:19;23.40;31.70
23560;DHT22;11958;50.836;4.438;2023-06-26T17:15:44;23.70;31.00
23560;DHT22;11958;50.836;4.438;2023-06-26T17:18:11;23.70;30.40
23560;DHT22;11958;50.836;4.438;2023-06-26T17:20:37;23.50;30.60
23560;DHT22;11958;50.836;4.438;2023-06-26T17:23:03;23.20;31.20
23560;DHT22;11958;50.836;4.438;2023-06-26T17:25:28;23.20;33.70
23560;DHT22;11958;50.836;4.438;2023-06-26T17:27:54;23.00;35.20
23560;DHT22;11958;50.836;4.438;2023-06-26T17:30:20;22.80;35.70
23560;DHT22;11958;50.836;4.438;2023-06-26T17:32:48;22.70;36.20
23560;DHT22;11958;50.836;4.438;2023-06-26T17:35:14;22.60;36.00
23560;DHT22;11958;50.836;4.438;2023-06-26T17:37:39;22.60;37.30
23560;DHT22;11958;50.836;4.438;2023-06-26T17:40:05;22.90;36.70
23560;DHT22;11958;50.836;4.438;2023-06-26T17:42:34;22.80;36.40
23560;DHT22;11958;50.836;4.438;2023-06-26T17:45:07;22.50;37.30
23560;DHT22;11958;50.836;4.438;2023-06-26T17:47:32;22.30;37.40
23560;DHT22;11958;50.836;4.438;2023-06-26T17:49:58;22.10;37.40
23560;DHT22;11958;50.836;4.438;2023-06-26T17:52:24;22.10;37.80
23560;DHT22;11958;50.836;4.438;2023-06-26T17:54:49;21.90;38.50
23560;DHT22;11958;50.836;4.438;2023-06-26T17:57:15;22.00;38.50
23560;DHT22;11958;50.836;4.438;2023-06-26T17:59:41;21.90;38.50
23560;DHT22;11958;50.836;4.438;2023-06-26T18:02:06;21.90;38.20
23560;DHT22;11958;50.836;4.438;2023-06-26T18:04:32;21.90;38.50
23560;DHT22;11958;50.836;4.438;2023-06-26T18:06:58;22.00;38.50
23560;DHT22;11958;50.836;4.438;2023-06-26T18:09:24;22.10;37.70
23560;DHT22;11958;50.836;4.438;2023-06-26T18:11:50;22.00;38.50
23560;DHT22;11958;50.836;4.438;2023-06-26T18:14:15;21.90;39.00
23560;DHT22;11958;50.836;4.438;2023-06-26T18:16:41;22.10;38.00
23560;DHT22;11958;50.836;4.438;2023-06-26T18:19:07;22.40;40.30
23560;DHT22;11958;50.836;4.438;2023-06-26T18:21:32;22.30;38.60
23560;DHT22;11958;50.836;4.438;2023-06-26T18:23:58;22.60;38.20
23560;DHT22;11958;50.836;4.438;2023-06-26T18:26:24;22.50;37.50
23560;DHT22;11958;50.836;4.438;2023-06-26T18:31:25;22.20;37.70
23560;DHT22;11958;50.836;4.438;2023-06-26T18:33:52;22.40;39.00
23560;DHT22;11958;50.836;4.438;2023-06-26T18:36:18;22.40;37.50
23560;DHT22;11958;50.836;4.438;2023-06-26T18:38:44;22.30;37.90
23560;DHT22;11958;50.836;4.438;2023-06-26T18:41:11;22.60;38.30
23560;DHT22;11958;50.836;4.438;2023-06-26T18:43:39;22.50;37.00
23560;DHT22;11958;50.836;4.438;2023-06-26T18:49:04;22.20;36.10
23560;DHT22;11958;50.836;4.438;2023-06-26T18:51:30;22.10;36.10
23560;DHT22;11958;50.836;4.438;2023-06-26T18:54:05;22.30;35.90
23560;DHT22;11958;50.836;4.438;2023-06-26T18:56:37;22.30;36.60
23560;DHT22;11958;50.836;4.438;2023-06-26T19:01:41;22.10;36.40
23560;DHT22;11958;50.836;4.438;2023-06-26T19:04:10;22.30;36.50
23560;DHT22;11958;50.836;4.438;2023-06-26T19:06:36;22.10;37.20
23560;DHT22;11958;50.836;4.438;2023-06-26T19:09:01;22.20;37.90
23560;DHT22;11958;50.836;4.438;2023-06-26T19:11:27;22.60;36.80
23560;DHT22;11958;50.836;4.438;2023-06-26T19:13:52;22.60;36.80